KINS/INS METAR and TAF weather

Enter ICAO airport designator
Station Type Date Time Source
KINS METAR 2022/01/28 23:58 UTC NOAA

KINS 282358Z AUTO 10009KT 10SM CLR 12/M23 A3037 RMK AO2 SLP282 T01231226 10132 20085 57020 $


Station Type Date Time Source
KINS Decoded METAR 2022/01/28 23:58 UTC NOAA

Indian Springs, Indian Springs Auxiliary AFLD Nellis AFB, NV, United States (KINS) 36-35N 115-40W
Jan 28, 2022 - 06:58 PM EST / 2022.01.28 2358 UTC
Wind: from the E (100 degrees) at 10 MPH (9 KT):0
Visibility: 10 mile(s):0
Sky conditions: clear
Temperature: 54.1 F (12.3 C)
Dew Point: -8.7 F (-22.6 C)
Relative Humidity: 6%
Pressure (altimeter): 30.37 in. Hg (1028 hPa)
Pressure tendency: 0.06 inches (2.0 hPa) lower than three hours ago
ob: KINS 282358Z AUTO 10009KT 10SM CLR 12/M23 A3037 RMK AO2 SLP282 T01231226 10132 20085 57020
cycle: 0

Station Type Date Time Source
KINS TAF 2022/01/28 21:06 UTC NOAA

TAF KINS 282101Z 2821/3003 06009KT 9999 FEW250 QNH3037INS
TEMPO 2821/2901 10010G18KT
BECMG 2902/2903 22006KT 9999 SCT250 QNH3024INS
BECMG 2918/2919 05009KT 9999 BKN250 QNH3017INS
BECMG 2920/2921 10009KT 9999 BKN250 QNH3013INS TX13/2823Z TNM01/2912Z

Example: see airport list